KGLW/GLW METAR and TAF weather

Enter ICAO airport designator
Station Type Date Time Source
KGLW METAR 2020/03/29 15:15 UTC NOAA

KGLW 291515Z AUTO 24021KT 10SM CLR 19/05 A2995 RMK AO2 T01850053


Station Type Date Time Source
KGLW Decoded METAR 2020/03/29 15:15 UTC NOAA

Glasgow, Glasgow Municipal Airport, KY, United States (KGLW) 37-01-54N 085-57-13W
Mar 29, 2020 - 11:15 AM EDT / 2020.03.29 1515 UTC
Wind: from the WSW (240 degrees) at 24 MPH (21 KT):0
Visibility: 10 mile(s):0
Sky conditions: clear
Temperature: 65.3 F (18.5 C)
Dew Point: 41.5 F (5.3 C)
Relative Humidity: 41%
Pressure (altimeter): 29.95 in. Hg (1014 hPa)
ob: KGLW 291515Z AUTO 24021KT 10SM CLR 19/05 A2995 RMK AO2 T01850053
cycle: 15

Station Type Date Time Source
KGLW TAF UTC NOAA

Error!

Example: see airport list